createdAt,value
2023-04-19T00:03:46.976Z,0
2023-04-19T00:08:55.886Z,0
2023-04-19T00:14:05.241Z,0
2023-04-19T00:19:14.995Z,0
2023-04-19T00:24:25.150Z,0
2023-04-19T00:29:35.559Z,0
2023-04-19T00:34:45.316Z,0
2023-04-19T00:39:53.800Z,0
2023-04-19T00:45:03.542Z,0
2023-04-19T00:50:13.364Z,0
2023-04-19T00:55:23.040Z,0
2023-04-19T01:00:33.475Z,0
2023-04-19T01:05:41.956Z,0
2023-04-19T01:10:51.709Z,0
2023-04-19T01:16:01.596Z,0
2023-04-19T01:21:11.223Z,0
2023-04-19T01:26:21.001Z,0
2023-04-19T01:31:30.405Z,0
2023-04-19T01:36:39.842Z,0
2023-04-19T01:41:47.715Z,0
2023-04-19T01:46:58.343Z,0
2023-04-19T01:52:06.609Z,0
2023-04-19T01:57:15.705Z,0
2023-04-19T02:02:29.205Z,0
2023-04-19T02:07:37.164Z,0
2023-04-19T02:12:46.288Z,0
2023-04-19T02:17:56.157Z,0
2023-04-19T02:23:05.147Z,0
2023-04-19T02:28:14.237Z,0
2023-04-19T02:33:23.394Z,0
2023-04-19T02:38:31.869Z,0
2023-04-19T02:43:40.985Z,0
2023-04-19T02:48:50.769Z,0
2023-04-19T02:54:00.495Z,0
2023-04-19T02:59:10.900Z,0
2023-04-19T03:14:37.633Z,0
2023-04-19T04:01:02.343Z,1
2023-04-19T04:06:10.131Z,4
2023-04-19T04:11:18.624Z,10
2023-04-19T04:16:27.135Z,22
2023-04-19T04:21:35.641Z,27
2023-04-19T04:26:45.280Z,38
2023-04-19T04:31:55.221Z,52
2023-04-19T04:37:03.541Z,66
2023-04-19T04:42:13.296Z,85
2023-04-19T04:47:23.188Z,109
2023-04-19T04:52:32.806Z,116
2023-04-19T04:57:41.996Z,130
2023-04-19T05:02:52.026Z,128
2023-04-19T05:08:23.891Z,221
2023-04-19T05:13:32.349Z,508
2023-04-19T05:18:42.743Z,666
2023-04-19T05:23:51.931Z,773
2023-04-19T05:29:00.996Z,841
2023-04-19T05:34:10.746Z,817
2023-04-19T05:39:20.592Z,1023
2023-04-19T05:44:30.309Z,1991
2023-04-19T05:49:43.485Z,4422
2023-04-19T05:54:52.388Z,3545
2023-04-19T06:00:03.422Z,8160
2023-04-19T06:05:12.153Z,4763
2023-04-19T06:10:19.748Z,2169
2023-04-19T06:15:30.816Z,4729
2023-04-19T06:20:38.726Z,3068
2023-04-19T06:25:46.486Z,6225
2023-04-19T06:30:56.210Z,2684
2023-04-19T06:36:05.992Z,1500
2023-04-19T06:41:15.712Z,6223
2023-04-19T06:46:24.361Z,5476
2023-04-19T06:51:32.040Z,2537
2023-04-19T06:56:41.142Z,3613
2023-04-19T07:01:52.357Z,6379
2023-04-19T07:07:01.963Z,5763
2023-04-19T07:12:10.478Z,5822
2023-04-19T07:17:18.906Z,5036
2023-04-19T07:22:29.297Z,3209
2023-04-19T08:14:51.814Z,1929
2023-04-19T08:19:17.284Z,2056
2023-04-19T08:24:28.284Z,1926
2023-04-19T08:29:35.562Z,1969
2023-04-19T08:34:44.664Z,1992
2023-04-19T08:39:55.717Z,1966
2023-04-19T08:51:03.905Z,2065
2023-04-19T08:55:27.558Z,2097
2023-04-19T09:00:37.982Z,2038
2023-04-19T09:05:48.629Z,2150
2023-04-19T09:10:57.416Z,2328
2023-04-19T09:16:05.924Z,2465
2023-04-19T09:21:16.368Z,2467
2023-04-19T09:26:24.203Z,2438
2023-04-19T09:31:52.793Z,2422
2023-04-19T09:36:44.334Z,2254
2023-04-19T09:41:53.706Z,2180
2023-04-19T09:47:02.363Z,2164
2023-04-19T09:52:12.331Z,2217
2023-04-19T09:57:20.835Z,2111
2023-04-19T10:02:32.422Z,2316
2023-04-19T10:07:41.148Z,2275
2023-04-19T10:13:25.948Z,2229
2023-04-19T10:18:02.227Z,2191
2023-04-19T10:23:12.813Z,1898
2023-04-19T10:28:21.300Z,1878
2023-04-19T10:33:32.985Z,1862
2023-04-19T10:38:42.121Z,1760
2023-04-19T10:43:53.180Z,1765
2023-04-19T10:49:01.684Z,1761
2023-04-19T10:54:11.364Z,1777
2023-04-19T10:59:21.862Z,1609
2023-04-19T11:04:32.417Z,1684
2023-04-19T11:09:41.304Z,1674
2023-04-19T11:14:51.065Z,1662
2023-04-19T11:20:02.269Z,1642
2023-04-19T11:25:11.886Z,1655
2023-04-19T12:16:53.541Z,1621
2023-04-19T12:53:47.159Z,1536
2023-04-19T12:58:56.863Z,1524
2023-04-19T13:04:06.963Z,1529
2023-04-19T13:09:15.755Z,1521
2023-04-19T13:14:24.845Z,1502
2023-04-19T13:19:34.590Z,1476
2023-04-19T13:24:43.686Z,1448
2023-04-19T13:29:52.817Z,1458
2023-04-19T13:35:02.589Z,1436
2023-04-19T13:40:20.337Z,1423
2023-04-19T13:45:21.491Z,1409
2023-04-19T13:50:30.605Z,1396
2023-04-19T13:55:40.330Z,1379
2023-04-19T14:00:48.970Z,1357
2023-04-19T14:05:59.264Z,1352
2023-04-19T14:11:07.730Z,1333
2023-04-19T14:16:18.227Z,1314
2023-04-19T14:21:27.230Z,1299
2023-04-19T14:26:36.368Z,1278
2023-04-19T14:31:45.644Z,1283
2023-04-19T14:36:55.232Z,1274
2023-04-19T14:42:05.633Z,1252
2023-04-19T14:47:16.045Z,1268
2023-04-19T14:52:25.789Z,1331
2023-04-19T14:57:34.929Z,1502
2023-04-19T15:02:44.678Z,1857
2023-04-19T15:07:53.171Z,1384
2023-04-19T15:13:02.907Z,1457
2023-04-19T15:18:13.312Z,665
2023-04-19T15:23:23.059Z,652
2023-04-19T15:28:32.176Z,1145
2023-04-19T15:33:42.011Z,1210
2023-04-19T15:38:50.431Z,1219
2023-04-19T15:43:59.559Z,1302
2023-04-19T15:49:08.037Z,1119
2023-04-19T16:35:33.405Z,749
2023-04-19T16:40:42.425Z,725
2023-04-19T16:45:52.374Z,815
2023-04-19T16:51:01.938Z,916
2023-04-19T16:56:12.377Z,849
2023-04-19T17:01:20.988Z,925
2023-04-19T17:06:29.331Z,762
2023-04-19T17:11:38.449Z,520
2023-04-19T17:16:46.924Z,420
2023-04-19T17:21:57.309Z,417
2023-04-19T17:27:06.419Z,391
2023-04-19T17:32:16.838Z,439
2023-04-19T17:37:25.356Z,530
2023-04-19T17:42:34.415Z,433
2023-04-19T17:47:44.518Z,350
2023-04-19T17:52:53.280Z,310
2023-04-19T17:58:02.424Z,280
2023-04-19T18:03:12.690Z,246
2023-04-19T18:08:20.663Z,208
2023-04-19T18:13:30.456Z,172
2023-04-19T18:18:40.171Z,136
2023-04-19T18:23:49.289Z,104
2023-04-19T18:28:57.189Z,73
2023-04-19T18:34:06.281Z,50
2023-04-19T18:39:17.006Z,32
2023-04-19T18:44:55.005Z,19
2023-04-19T18:49:34.388Z,10
2023-04-19T18:54:44.065Z,5
2023-04-19T18:59:53.140Z,2
2023-04-19T19:15:21.172Z,0
2023-04-19T19:20:29.024Z,0
2023-04-19T19:25:38.096Z,0
2023-04-19T19:30:46.578Z,0
2023-04-19T19:51:59.952Z,0
2023-04-19T20:08:06.264Z,0
2023-04-19T20:22:19.165Z,0
2023-04-19T20:27:27.637Z,0
2023-04-19T20:32:37.408Z,0
2023-04-19T20:37:47.702Z,0
2023-04-19T20:42:56.194Z,0
2023-04-19T20:48:05.487Z,0
2023-04-19T20:53:13.792Z,0
2023-04-19T20:58:22.936Z,0
2023-04-19T21:03:33.607Z,0
2023-04-19T21:08:41.469Z,0
2023-04-19T21:13:50.294Z,0
2023-04-19T21:19:00.026Z,0
2023-04-19T21:24:09.157Z,0
2023-04-19T21:29:18.225Z,0
2023-04-19T21:34:26.146Z,0
2023-04-19T21:39:35.275Z,0
2023-04-19T21:44:43.725Z,0
2023-04-19T21:49:53.478Z,0
2023-04-19T21:55:02.652Z,0
2023-04-19T22:00:12.637Z,0
2023-04-19T22:05:21.477Z,0
2023-04-19T22:10:30.603Z,0
2023-04-19T22:15:39.061Z,0
2023-04-19T22:20:48.836Z,0
2023-04-19T22:25:57.321Z,0
2023-04-19T22:31:05.787Z,0
2023-04-19T22:36:14.942Z,0
2023-04-19T22:41:23.375Z,0
2023-04-19T22:46:33.578Z,0
2023-04-19T22:51:42.891Z,0
2023-04-19T22:56:52.084Z,0
2023-04-19T23:02:02.484Z,0
2023-04-19T23:07:12.210Z,0
2023-04-19T23:12:20.680Z,0
2023-04-19T23:17:29.941Z,0
